Grassy Plains, Canada
Current Conditions -  °F | °C
As of 3:00 AM on Tuesday 21 Oct 2014 (Local Time) from CYYD Reporting Station
Clear Clear  
Wind Chill: 28°   Ceiling: Unl
Heat Index: 34°   Visibility: 9mi
Dew Point: 32°   Wind: 7mph
Humidity: 93%   Direction: 180°S
Pressure: 29.53"   Gusts: NA
Location:  53.95°N, 125.88°W
Report Text: CYYD 211000Z AUTO 18006KT 9SM CLR 01/00 A2953 RMK SLP011
Loading
Personal Weather Stations






























Interactive Weather Map
Tropical Storm Tracking
New forecast layout! Learn more

10-Day Weather Forecast

Advertisements
Track Severe Weather on mobile